sensor_id;sensor_type;location;lat;lon;timestamp;P1;durP1;ratioP1;P2;durP2;ratioP2
19551;SDS011;9921;47.186;9.778;2023-05-23T00:01:00;0.00;;;0.00;;
19551;SDS011;9921;47.186;9.778;2023-05-23T00:03:27;0.00;;;0.00;;
19551;SDS011;9921;47.186;9.778;2023-05-23T00:05:55;0.00;;;0.00;;
19551;SDS011;9921;47.186;9.778;2023-05-23T00:08:23;0.00;;;0.00;;
19551;SDS011;9921;47.186;9.778;2023-05-23T00:10:50;0.00;;;0.00;;
19551;SDS011;9921;47.186;9.778;2023-05-23T00:13:16;0.00;;;0.00;;
19551;SDS011;9921;47.186;9.778;2023-05-23T00:15:43;0.00;;;0.00;;
19551;SDS011;9921;47.186;9.778;2023-05-23T00:18:12;0.00;;;0.00;;
19551;SDS011;9921;47.186;9.778;2023-05-23T00:20:40;0.00;;;0.00;;
19551;SDS011;9921;47.186;9.778;2023-05-23T00:23:08;0.00;;;0.00;;
19551;SDS011;9921;47.186;9.778;2023-05-23T00:25:35;0.00;;;0.00;;
19551;SDS011;9921;47.186;9.778;2023-05-23T00:28:02;0.00;;;0.00;;
19551;SDS011;9921;47.186;9.778;2023-05-23T00:30:29;0.00;;;0.00;;
19551;SDS011;9921;47.186;9.778;2023-05-23T00:32:57;0.00;;;0.00;;
19551;SDS011;9921;47.186;9.778;2023-05-23T00:35:26;0.00;;;0.00;;
19551;SDS011;9921;47.186;9.778;2023-05-23T00:37:52;0.00;;;0.00;;
19551;SDS011;9921;47.186;9.778;2023-05-23T00:40:20;0.00;;;0.00;;
19551;SDS011;9921;47.186;9.778;2023-05-23T00:42:47;0.00;;;0.00;;
19551;SDS011;9921;47.186;9.778;2023-05-23T00:45:14;0.00;;;0.00;;
19551;SDS011;9921;47.186;9.778;2023-05-23T00:47:42;0.00;;;0.00;;
19551;SDS011;9921;47.186;9.778;2023-05-23T00:50:10;0.00;;;0.00;;
19551;SDS011;9921;47.186;9.778;2023-05-23T00:52:40;0.00;;;0.00;;
19551;SDS011;9921;47.186;9.778;2023-05-23T00:55:08;0.00;;;0.00;;
19551;SDS011;9921;47.186;9.778;2023-05-23T00:57:35;0.00;;;0.00;;
19551;SDS011;9921;47.186;9.778;2023-05-23T01:00:04;0.00;;;0.00;;
19551;SDS011;9921;47.186;9.778;2023-05-23T01:02:35;0.00;;;0.00;;
19551;SDS011;9921;47.186;9.778;2023-05-23T01:05:05;0.00;;;0.00;;
19551;SDS011;9921;47.186;9.778;2023-05-23T01:07:32;0.00;;;0.00;;
19551;SDS011;9921;47.186;9.778;2023-05-23T01:10:01;0.00;;;0.00;;
19551;SDS011;9921;47.186;9.778;2023-05-23T01:12:30;0.00;;;0.00;;
19551;SDS011;9921;47.186;9.778;2023-05-23T01:15:05;0.00;;;0.00;;
19551;SDS011;9921;47.186;9.778;2023-05-23T01:17:38;0.00;;;0.00;;
19551;SDS011;9921;47.186;9.778;2023-05-23T01:20:11;0.00;;;0.00;;
19551;SDS011;9921;47.186;9.778;2023-05-23T01:22:48;0.00;;;0.00;;
19551;SDS011;9921;47.186;9.778;2023-05-23T01:25:48;0.00;;;0.00;;
19551;SDS011;9921;47.186;9.778;2023-05-23T01:28:30;0.00;;;0.00;;
19551;SDS011;9921;47.186;9.778;2023-05-23T01:30:59;0.00;;;0.00;;
19551;SDS011;9921;47.186;9.778;2023-05-23T01:33:29;0.00;;;0.00;;
19551;SDS011;9921;47.186;9.778;2023-05-23T01:35:57;0.00;;;0.00;;
19551;SDS011;9921;47.186;9.778;2023-05-23T01:38:27;0.00;;;0.00;;
19551;SDS011;9921;47.186;9.778;2023-05-23T01:40:55;0.00;;;0.00;;
19551;SDS011;9921;47.186;9.778;2023-05-23T01:43:22;0.00;;;0.00;;
19551;SDS011;9921;47.186;9.778;2023-05-23T01:45:52;0.00;;;0.00;;
19551;SDS011;9921;47.186;9.778;2023-05-23T01:48:21;0.00;;;0.00;;
19551;SDS011;9921;47.186;9.778;2023-05-23T01:50:50;0.00;;;0.00;;
19551;SDS011;9921;47.186;9.778;2023-05-23T01:53:19;0.00;;;0.00;;
19551;SDS011;9921;47.186;9.778;2023-05-23T01:55:47;0.00;;;0.00;;
19551;SDS011;9921;47.186;9.778;2023-05-23T01:58:15;0.00;;;0.00;;
19551;SDS011;9921;47.186;9.778;2023-05-23T02:00:42;0.00;;;0.00;;
19551;SDS011;9921;47.186;9.778;2023-05-23T02:03:11;0.00;;;0.00;;
19551;SDS011;9921;47.186;9.778;2023-05-23T02:05:38;0.00;;;0.00;;
19551;SDS011;9921;47.186;9.778;2023-05-23T02:08:05;0.00;;;0.00;;
19551;SDS011;9921;47.186;9.778;2023-05-23T02:10:32;0.00;;;0.00;;
19551;SDS011;9921;47.186;9.778;2023-05-23T02:12:58;0.00;;;0.00;;
19551;SDS011;9921;47.186;9.778;2023-05-23T02:15:25;0.00;;;0.00;;
19551;SDS011;9921;47.186;9.778;2023-05-23T02:17:52;0.00;;;0.00;;
19551;SDS011;9921;47.186;9.778;2023-05-23T02:20:20;0.00;;;0.00;;
19551;SDS011;9921;47.186;9.778;2023-05-23T02:22:47;0.00;;;0.00;;
19551;SDS011;9921;47.186;9.778;2023-05-23T02:25:14;0.00;;;0.00;;
19551;SDS011;9921;47.186;9.778;2023-05-23T02:27:41;0.00;;;0.00;;
19551;SDS011;9921;47.186;9.778;2023-05-23T02:30:08;0.00;;;0.00;;
19551;SDS011;9921;47.186;9.778;2023-05-23T02:32:35;0.00;;;0.00;;
19551;SDS011;9921;47.186;9.778;2023-05-23T02:35:02;0.00;;;0.00;;
19551;SDS011;9921;47.186;9.778;2023-05-23T02:37:31;0.00;;;0.00;;
19551;SDS011;9921;47.186;9.778;2023-05-23T02:39:58;0.00;;;0.00;;
19551;SDS011;9921;47.186;9.778;2023-05-23T02:42:25;0.00;;;0.00;;
19551;SDS011;9921;47.186;9.778;2023-05-23T02:44:52;0.00;;;0.00;;
19551;SDS011;9921;47.186;9.778;2023-05-23T02:47:19;0.00;;;0.00;;
19551;SDS011;9921;47.186;9.778;2023-05-23T02:49:46;0.00;;;0.00;;
19551;SDS011;9921;47.186;9.778;2023-05-23T02:52:12;0.00;;;0.00;;
19551;SDS011;9921;47.186;9.778;2023-05-23T02:54:41;0.00;;;0.00;;
19551;SDS011;9921;47.186;9.778;2023-05-23T02:57:07;0.00;;;0.00;;
19551;SDS011;9921;47.186;9.778;2023-05-23T02:59:34;0.00;;;0.00;;
19551;SDS011;9921;47.186;9.778;2023-05-23T03:02:01;0.00;;;0.00;;
19551;SDS011;9921;47.186;9.778;2023-05-23T03:04:28;0.00;;;0.00;;
19551;SDS011;9921;47.186;9.778;2023-05-23T03:06:55;0.00;;;0.00;;
19551;SDS011;9921;47.186;9.778;2023-05-23T03:09:23;0.00;;;0.00;;
19551;SDS011;9921;47.186;9.778;2023-05-23T03:11:52;0.00;;;0.00;;
19551;SDS011;9921;47.186;9.778;2023-05-23T03:14:19;0.00;;;0.00;;
19551;SDS011;9921;47.186;9.778;2023-05-23T03:16:45;0.00;;;0.00;;
19551;SDS011;9921;47.186;9.778;2023-05-23T03:19:12;0.00;;;0.00;;
19551;SDS011;9921;47.186;9.778;2023-05-23T03:21:39;0.00;;;0.00;;
19551;SDS011;9921;47.186;9.778;2023-05-23T03:24:06;0.00;;;0.00;;
19551;SDS011;9921;47.186;9.778;2023-05-23T03:26:33;0.00;;;0.00;;
19551;SDS011;9921;47.186;9.778;2023-05-23T03:29:01;0.00;;;0.00;;
19551;SDS011;9921;47.186;9.778;2023-05-23T03:31:28;0.00;;;0.00;;
19551;SDS011;9921;47.186;9.778;2023-05-23T03:33:55;0.00;;;0.00;;
19551;SDS011;9921;47.186;9.778;2023-05-23T03:36:22;0.00;;;0.00;;
19551;SDS011;9921;47.186;9.778;2023-05-23T03:38:52;0.00;;;0.00;;
19551;SDS011;9921;47.186;9.778;2023-05-23T03:41:19;0.00;;;0.00;;
19551;SDS011;9921;47.186;9.778;2023-05-23T03:43:46;0.00;;;0.00;;
19551;SDS011;9921;47.186;9.778;2023-05-23T03:46:14;0.00;;;0.00;;
19551;SDS011;9921;47.186;9.778;2023-05-23T03:48:41;0.00;;;0.00;;
19551;SDS011;9921;47.186;9.778;2023-05-23T03:51:08;0.00;;;0.00;;
19551;SDS011;9921;47.186;9.778;2023-05-23T03:53:37;0.00;;;0.00;;
19551;SDS011;9921;47.186;9.778;2023-05-23T03:56:04;0.00;;;0.00;;
19551;SDS011;9921;47.186;9.778;2023-05-23T03:58:31;0.00;;;0.00;;
19551;SDS011;9921;47.186;9.778;2023-05-23T04:00:58;0.00;;;0.00;;
19551;SDS011;9921;47.186;9.778;2023-05-23T04:03:27;0.00;;;0.00;;
19551;SDS011;9921;47.186;9.778;2023-05-23T04:05:56;0.00;;;0.00;;
19551;SDS011;9921;47.186;9.778;2023-05-23T04:08:23;0.00;;;0.00;;
19551;SDS011;9921;47.186;9.778;2023-05-23T04:10:50;0.00;;;0.00;;
19551;SDS011;9921;47.186;9.778;2023-05-23T04:13:17;0.00;;;0.00;;
19551;SDS011;9921;47.186;9.778;2023-05-23T04:15:44;0.00;;;0.00;;
19551;SDS011;9921;47.186;9.778;2023-05-23T04:18:12;0.00;;;0.00;;
19551;SDS011;9921;47.186;9.778;2023-05-23T04:20:40;0.00;;;0.00;;
19551;SDS011;9921;47.186;9.778;2023-05-23T04:23:07;0.00;;;0.00;;
19551;SDS011;9921;47.186;9.778;2023-05-23T04:25:34;0.00;;;0.00;;
19551;SDS011;9921;47.186;9.778;2023-05-23T04:28:01;0.00;;;0.00;;
19551;SDS011;9921;47.186;9.778;2023-05-23T04:30:29;0.00;;;0.00;;
19551;SDS011;9921;47.186;9.778;2023-05-23T04:32:56;0.00;;;0.00;;
19551;SDS011;9921;47.186;9.778;2023-05-23T04:35:24;0.00;;;0.00;;
19551;SDS011;9921;47.186;9.778;2023-05-23T04:37:53;0.00;;;0.00;;
19551;SDS011;9921;47.186;9.778;2023-05-23T04:40:21;0.00;;;0.00;;
19551;SDS011;9921;47.186;9.778;2023-05-23T04:42:48;0.00;;;0.00;;
19551;SDS011;9921;47.186;9.778;2023-05-23T04:45:15;0.00;;;0.00;;
19551;SDS011;9921;47.186;9.778;2023-05-23T04:47:43;0.00;;;0.00;;
19551;SDS011;9921;47.186;9.778;2023-05-23T04:50:10;0.00;;;0.00;;
19551;SDS011;9921;47.186;9.778;2023-05-23T04:52:38;0.00;;;0.00;;
19551;SDS011;9921;47.186;9.778;2023-05-23T04:55:07;0.00;;;0.00;;
19551;SDS011;9921;47.186;9.778;2023-05-23T04:57:34;0.00;;;0.00;;
19551;SDS011;9921;47.186;9.778;2023-05-23T05:00:02;0.00;;;0.00;;
19551;SDS011;9921;47.186;9.778;2023-05-23T05:02:33;0.00;;;0.00;;
19551;SDS011;9921;47.186;9.778;2023-05-23T05:05:00;0.00;;;0.00;;
19551;SDS011;9921;47.186;9.778;2023-05-23T05:07:28;0.00;;;0.00;;
19551;SDS011;9921;47.186;9.778;2023-05-23T05:09:54;0.00;;;0.00;;
19551;SDS011;9921;47.186;9.778;2023-05-23T05:12:23;0.00;;;0.00;;
19551;SDS011;9921;47.186;9.778;2023-05-23T05:14:50;0.00;;;0.00;;
19551;SDS011;9921;47.186;9.778;2023-05-23T05:17:17;0.00;;;0.00;;
19551;SDS011;9921;47.186;9.778;2023-05-23T05:19:44;0.00;;;0.00;;
19551;SDS011;9921;47.186;9.778;2023-05-23T05:22:11;0.00;;;0.00;;
19551;SDS011;9921;47.186;9.778;2023-05-23T05:24:37;0.00;;;0.00;;
19551;SDS011;9921;47.186;9.778;2023-05-23T05:27:05;0.00;;;0.00;;
19551;SDS011;9921;47.186;9.778;2023-05-23T05:29:34;0.00;;;0.00;;
19551;SDS011;9921;47.186;9.778;2023-05-23T05:32:02;0.00;;;0.00;;
19551;SDS011;9921;47.186;9.778;2023-05-23T05:34:29;0.00;;;0.00;;
19551;SDS011;9921;47.186;9.778;2023-05-23T05:36:56;0.00;;;0.00;;
19551;SDS011;9921;47.186;9.778;2023-05-23T05:39:23;0.00;;;0.00;;
19551;SDS011;9921;47.186;9.778;2023-05-23T05:41:50;0.00;;;0.00;;
19551;SDS011;9921;47.186;9.778;2023-05-23T05:44:17;0.00;;;0.00;;
19551;SDS011;9921;47.186;9.778;2023-05-23T05:46:46;0.00;;;0.00;;
19551;SDS011;9921;47.186;9.778;2023-05-23T05:49:13;0.00;;;0.00;;
19551;SDS011;9921;47.186;9.778;2023-05-23T05:51:40;0.00;;;0.00;;
19551;SDS011;9921;47.186;9.778;2023-05-23T05:54:07;0.00;;;0.00;;
19551;SDS011;9921;47.186;9.778;2023-05-23T05:56:33;0.00;;;0.00;;
19551;SDS011;9921;47.186;9.778;2023-05-23T05:59:00;0.00;;;0.00;;
19551;SDS011;9921;47.186;9.778;2023-05-23T06:01:27;0.00;;;0.00;;
19551;SDS011;9921;47.186;9.778;2023-05-23T06:03:56;0.00;;;0.00;;
19551;SDS011;9921;47.186;9.778;2023-05-23T06:06:23;0.00;;;0.00;;
19551;SDS011;9921;47.186;9.778;2023-05-23T06:08:50;0.00;;;0.00;;
19551;SDS011;9921;47.186;9.778;2023-05-23T06:11:17;0.00;;;0.00;;
19551;SDS011;9921;47.186;9.778;2023-05-23T06:13:44;0.00;;;0.00;;
19551;SDS011;9921;47.186;9.778;2023-05-23T06:16:11;0.00;;;0.00;;
19551;SDS011;9921;47.186;9.778;2023-05-23T06:18:39;0.00;;;0.00;;
19551;SDS011;9921;47.186;9.778;2023-05-23T06:21:07;0.00;;;0.00;;
19551;SDS011;9921;47.186;9.778;2023-05-23T06:23:34;0.00;;;0.00;;
19551;SDS011;9921;47.186;9.778;2023-05-23T06:26:01;0.00;;;0.00;;
19551;SDS011;9921;47.186;9.778;2023-05-23T06:28:31;0.00;;;0.00;;
19551;SDS011;9921;47.186;9.778;2023-05-23T06:30:58;0.00;;;0.00;;
19551;SDS011;9921;47.186;9.778;2023-05-23T06:33:26;0.00;;;0.00;;
19551;SDS011;9921;47.186;9.778;2023-05-23T06:35:55;0.00;;;0.00;;
19551;SDS011;9921;47.186;9.778;2023-05-23T06:38:25;0.00;;;0.00;;
19551;SDS011;9921;47.186;9.778;2023-05-23T06:40:53;0.00;;;0.00;;
19551;SDS011;9921;47.186;9.778;2023-05-23T06:43:20;0.00;;;0.00;;
19551;SDS011;9921;47.186;9.778;2023-05-23T06:45:47;0.00;;;0.00;;
19551;SDS011;9921;47.186;9.778;2023-05-23T06:48:14;0.00;;;0.00;;
19551;SDS011;9921;47.186;9.778;2023-05-23T06:50:41;0.00;;;0.00;;
19551;SDS011;9921;47.186;9.778;2023-05-23T06:53:08;0.00;;;0.00;;
19551;SDS011;9921;47.186;9.778;2023-05-23T06:55:36;0.00;;;0.00;;
19551;SDS011;9921;47.186;9.778;2023-05-23T06:58:03;0.00;;;0.00;;
19551;SDS011;9921;47.186;9.778;2023-05-23T07:00:30;0.00;;;0.00;;
19551;SDS011;9921;47.186;9.778;2023-05-23T07:02:57;0.00;;;0.00;;
19551;SDS011;9921;47.186;9.778;2023-05-23T07:05:25;0.00;;;0.00;;
19551;SDS011;9921;47.186;9.778;2023-05-23T07:07:52;0.00;;;0.00;;
19551;SDS011;9921;47.186;9.778;2023-05-23T07:10:19;0.00;;;0.00;;
19551;SDS011;9921;47.186;9.778;2023-05-23T07:12:47;0.00;;;0.00;;
19551;SDS011;9921;47.186;9.778;2023-05-23T07:15:14;0.00;;;0.00;;
19551;SDS011;9921;47.186;9.778;2023-05-23T07:17:41;0.00;;;0.00;;
19551;SDS011;9921;47.186;9.778;2023-05-23T07:20:08;0.00;;;0.00;;
19551;SDS011;9921;47.186;9.778;2023-05-23T07:22:36;0.00;;;0.00;;
19551;SDS011;9921;47.186;9.778;2023-05-23T07:25:03;0.00;;;0.00;;
19551;SDS011;9921;47.186;9.778;2023-05-23T07:27:31;0.00;;;0.00;;
19551;SDS011;9921;47.186;9.778;2023-05-23T07:29:59;0.00;;;0.00;;
19551;SDS011;9921;47.186;9.778;2023-05-23T07:32:27;0.00;;;0.00;;
19551;SDS011;9921;47.186;9.778;2023-05-23T07:34:53;0.00;;;0.00;;
19551;SDS011;9921;47.186;9.778;2023-05-23T07:37:20;0.00;;;0.00;;
19551;SDS011;9921;47.186;9.778;2023-05-23T07:39:47;0.00;;;0.00;;
19551;SDS011;9921;47.186;9.778;2023-05-23T07:42:14;0.00;;;0.00;;
19551;SDS011;9921;47.186;9.778;2023-05-23T07:44:41;0.00;;;0.00;;
19551;SDS011;9921;47.186;9.778;2023-05-23T07:47:09;0.00;;;0.00;;
19551;SDS011;9921;47.186;9.778;2023-05-23T07:49:36;0.00;;;0.00;;
19551;SDS011;9921;47.186;9.778;2023-05-23T07:52:03;0.00;;;0.00;;
19551;SDS011;9921;47.186;9.778;2023-05-23T07:54:30;0.00;;;0.00;;
19551;SDS011;9921;47.186;9.778;2023-05-23T07:56:57;0.00;;;0.00;;
19551;SDS011;9921;47.186;9.778;2023-05-23T07:59:24;0.00;;;0.00;;
19551;SDS011;9921;47.186;9.778;2023-05-23T08:01:51;0.00;;;0.00;;
19551;SDS011;9921;47.186;9.778;2023-05-23T08:04:19;0.00;;;0.00;;
19551;SDS011;9921;47.186;9.778;2023-05-23T08:06:46;0.00;;;0.00;;
19551;SDS011;9921;47.186;9.778;2023-05-23T08:09:13;0.00;;;0.00;;
19551;SDS011;9921;47.186;9.778;2023-05-23T08:11:40;0.00;;;0.00;;
19551;SDS011;9921;47.186;9.778;2023-05-23T08:14:07;0.00;;;0.00;;
19551;SDS011;9921;47.186;9.778;2023-05-23T08:16:34;0.00;;;0.00;;
19551;SDS011;9921;47.186;9.778;2023-05-23T08:19:01;0.00;;;0.00;;
19551;SDS011;9921;47.186;9.778;2023-05-23T08:21:30;0.00;;;0.00;;
19551;SDS011;9921;47.186;9.778;2023-05-23T08:23:57;0.00;;;0.00;;
19551;SDS011;9921;47.186;9.778;2023-05-23T08:26:24;0.00;;;0.00;;
19551;SDS011;9921;47.186;9.778;2023-05-23T08:28:58;0.00;;;0.00;;
19551;SDS011;9921;47.186;9.778;2023-05-23T08:31:26;0.00;;;0.00;;
19551;SDS011;9921;47.186;9.778;2023-05-23T08:33:53;0.00;;;0.00;;
19551;SDS011;9921;47.186;9.778;2023-05-23T08:36:19;0.00;;;0.00;;
19551;SDS011;9921;47.186;9.778;2023-05-23T08:38:48;0.00;;;0.00;;
19551;SDS011;9921;47.186;9.778;2023-05-23T08:41:17;0.00;;;0.00;;
19551;SDS011;9921;47.186;9.778;2023-05-23T08:43:46;0.00;;;0.00;;
19551;SDS011;9921;47.186;9.778;2023-05-23T08:46:13;0.00;;;0.00;;
19551;SDS011;9921;47.186;9.778;2023-05-23T08:48:41;0.00;;;0.00;;
19551;SDS011;9921;47.186;9.778;2023-05-23T08:51:09;0.00;;;0.00;;
19551;SDS011;9921;47.186;9.778;2023-05-23T08:53:37;0.00;;;0.00;;
19551;SDS011;9921;47.186;9.778;2023-05-23T08:56:08;0.00;;;0.00;;
19551;SDS011;9921;47.186;9.778;2023-05-23T08:58:35;0.00;;;0.00;;
19551;SDS011;9921;47.186;9.778;2023-05-23T09:01:04;0.00;;;0.00;;
19551;SDS011;9921;47.186;9.778;2023-05-23T09:03:32;0.00;;;0.00;;
19551;SDS011;9921;47.186;9.778;2023-05-23T09:06:01;0.00;;;0.00;;
19551;SDS011;9921;47.186;9.778;2023-05-23T09:08:29;0.00;;;0.00;;
19551;SDS011;9921;47.186;9.778;2023-05-23T09:10:55;0.00;;;0.00;;
19551;SDS011;9921;47.186;9.778;2023-05-23T09:13:24;0.00;;;0.00;;
19551;SDS011;9921;47.186;9.778;2023-05-23T09:15:55;0.00;;;0.00;;
19551;SDS011;9921;47.186;9.778;2023-05-23T09:18:26;0.00;;;0.00;;
19551;SDS011;9921;47.186;9.778;2023-05-23T09:20:58;0.00;;;0.00;;
19551;SDS011;9921;47.186;9.778;2023-05-23T09:23:24;0.00;;;0.00;;
19551;SDS011;9921;47.186;9.778;2023-05-23T09:25:54;0.00;;;0.00;;
19551;SDS011;9921;47.186;9.778;2023-05-23T09:28:21;0.00;;;0.00;;
19551;SDS011;9921;47.186;9.778;2023-05-23T09:30:49;0.00;;;0.00;;
19551;SDS011;9921;47.186;9.778;2023-05-23T09:33:27;0.00;;;0.00;;
19551;SDS011;9921;47.186;9.778;2023-05-23T09:35:54;0.00;;;0.00;;
19551;SDS011;9921;47.186;9.778;2023-05-23T09:38:22;0.00;;;0.00;;
19551;SDS011;9921;47.186;9.778;2023-05-23T09:40:50;0.00;;;0.00;;
19551;SDS011;9921;47.186;9.778;2023-05-23T09:43:21;0.00;;;0.00;;
19551;SDS011;9921;47.186;9.778;2023-05-23T09:45:51;0.00;;;0.00;;
19551;SDS011;9921;47.186;9.778;2023-05-23T09:48:18;0.00;;;0.00;;
19551;SDS011;9921;47.186;9.778;2023-05-23T09:50:45;0.00;;;0.00;;
19551;SDS011;9921;47.186;9.778;2023-05-23T09:53:15;0.00;;;0.00;;
19551;SDS011;9921;47.186;9.778;2023-05-23T09:55:45;0.00;;;0.00;;
19551;SDS011;9921;47.186;9.778;2023-05-23T09:58:13;0.00;;;0.00;;
19551;SDS011;9921;47.186;9.778;2023-05-23T10:00:42;0.00;;;0.00;;
19551;SDS011;9921;47.186;9.778;2023-05-23T10:03:13;0.00;;;0.00;;
19551;SDS011;9921;47.186;9.778;2023-05-23T10:05:43;0.00;;;0.00;;
19551;SDS011;9921;47.186;9.778;2023-05-23T10:08:13;0.00;;;0.00;;
19551;SDS011;9921;47.186;9.778;2023-05-23T10:13:59;0.00;;;0.00;;
19551;SDS011;9921;47.186;9.778;2023-05-23T10:16:30;0.00;;;0.00;;
19551;SDS011;9921;47.186;9.778;2023-05-23T10:19:09;0.00;;;0.00;;
19551;SDS011;9921;47.186;9.778;2023-05-23T10:21:43;0.10;;;0.10;;
19551;SDS011;9921;47.186;9.778;2023-05-23T10:24:15;0.10;;;0.10;;
19551;SDS011;9921;47.186;9.778;2023-05-23T10:26:42;0.10;;;0.10;;
19551;SDS011;9921;47.186;9.778;2023-05-23T10:29:10;0.10;;;0.10;;
19551;SDS011;9921;47.186;9.778;2023-05-23T10:31:37;0.20;;;0.20;;
19551;SDS011;9921;47.186;9.778;2023-05-23T10:34:07;0.10;;;0.10;;
19551;SDS011;9921;47.186;9.778;2023-05-23T10:36:42;0.10;;;0.10;;
19551;SDS011;9921;47.186;9.778;2023-05-23T10:39:18;0.10;;;0.10;;
19551;SDS011;9921;47.186;9.778;2023-05-23T10:41:54;0.10;;;0.10;;
19551;SDS011;9921;47.186;9.778;2023-05-23T10:44:25;0.08;;;0.08;;
19551;SDS011;9921;47.186;9.778;2023-05-23T10:46:54;0.10;;;0.10;;
19551;SDS011;9921;47.186;9.778;2023-05-23T10:49:37;0.10;;;0.10;;
19551;SDS011;9921;47.186;9.778;2023-05-23T10:52:05;0.00;;;0.00;;
19551;SDS011;9921;47.186;9.778;2023-05-23T10:54:35;0.00;;;0.00;;
19551;SDS011;9921;47.186;9.778;2023-05-23T10:57:06;0.10;;;0.10;;
19551;SDS011;9921;47.186;9.778;2023-05-23T10:59:35;0.10;;;0.10;;
19551;SDS011;9921;47.186;9.778;2023-05-23T11:02:04;0.00;;;0.00;;
19551;SDS011;9921;47.186;9.778;2023-05-23T11:04:38;0.00;;;0.00;;
19551;SDS011;9921;47.186;9.778;2023-05-23T11:07:05;0.00;;;0.00;;
19551;SDS011;9921;47.186;9.778;2023-05-23T11:10:02;0.03;;;0.03;;
19551;SDS011;9921;47.186;9.778;2023-05-23T11:12:36;0.00;;;0.00;;
19551;SDS011;9921;47.186;9.778;2023-05-23T11:15:17;0.05;;;0.05;;
19551;SDS011;9921;47.186;9.778;2023-05-23T11:17:49;0.00;;;0.00;;
19551;SDS011;9921;47.186;9.778;2023-05-23T11:20:19;0.03;;;0.03;;
19551;SDS011;9921;47.186;9.778;2023-05-23T11:22:58;0.00;;;0.00;;
19551;SDS011;9921;47.186;9.778;2023-05-23T11:25:39;0.00;;;0.00;;
19551;SDS011;9921;47.186;9.778;2023-05-23T11:28:07;0.05;;;0.05;;
19551;SDS011;9921;47.186;9.778;2023-05-23T11:30:35;0.10;;;0.10;;
19551;SDS011;9921;47.186;9.778;2023-05-23T11:33:05;0.10;;;0.10;;
19551;SDS011;9921;47.186;9.778;2023-05-23T11:35:36;0.10;;;0.10;;
19551;SDS011;9921;47.186;9.778;2023-05-23T11:38:03;0.10;;;0.10;;
19551;SDS011;9921;47.186;9.778;2023-05-23T11:40:31;0.10;;;0.10;;
19551;SDS011;9921;47.186;9.778;2023-05-23T11:42:59;0.10;;;0.10;;
19551;SDS011;9921;47.186;9.778;2023-05-23T11:45:28;0.10;;;0.10;;
19551;SDS011;9921;47.186;9.778;2023-05-23T11:47:56;0.10;;;0.10;;
19551;SDS011;9921;47.186;9.778;2023-05-23T11:50:23;0.10;;;0.10;;
19551;SDS011;9921;47.186;9.778;2023-05-23T11:52:53;0.15;;;0.15;;
19551;SDS011;9921;47.186;9.778;2023-05-23T11:55:20;0.10;;;0.10;;
19551;SDS011;9921;47.186;9.778;2023-05-23T11:57:47;0.10;;;0.10;;
19551;SDS011;9921;47.186;9.778;2023-05-23T12:00:15;0.10;;;0.10;;
19551;SDS011;9921;47.186;9.778;2023-05-23T12:02:44;0.10;;;0.10;;
19551;SDS011;9921;47.186;9.778;2023-05-23T12:05:13;0.10;;;0.10;;
19551;SDS011;9921;47.186;9.778;2023-05-23T12:07:40;0.10;;;0.10;;
19551;SDS011;9921;47.186;9.778;2023-05-23T12:10:09;0.10;;;0.10;;
19551;SDS011;9921;47.186;9.778;2023-05-23T12:12:39;0.10;;;0.10;;
19551;SDS011;9921;47.186;9.778;2023-05-23T12:15:07;0.10;;;0.10;;
19551;SDS011;9921;47.186;9.778;2023-05-23T12:17:35;0.10;;;0.10;;
19551;SDS011;9921;47.186;9.778;2023-05-23T12:20:03;0.10;;;0.10;;
19551;SDS011;9921;47.186;9.778;2023-05-23T12:22:31;0.10;;;0.10;;
19551;SDS011;9921;47.186;9.778;2023-05-23T12:24:58;0.10;;;0.10;;
19551;SDS011;9921;47.186;9.778;2023-05-23T12:27:29;0.10;;;0.10;;
19551;SDS011;9921;47.186;9.778;2023-05-23T12:30:04;0.20;;;0.20;;
19551;SDS011;9921;47.186;9.778;2023-05-23T12:32:34;0.20;;;0.20;;
19551;SDS011;9921;47.186;9.778;2023-05-23T12:35:04;0.10;;;0.10;;
19551;SDS011;9921;47.186;9.778;2023-05-23T12:37:32;0.15;;;0.15;;
19551;SDS011;9921;47.186;9.778;2023-05-23T12:40:08;0.10;;;0.10;;
19551;SDS011;9921;47.186;9.778;2023-05-23T12:42:44;0.10;;;0.10;;
19551;SDS011;9921;47.186;9.778;2023-05-23T12:45:17;0.10;;;0.10;;
19551;SDS011;9921;47.186;9.778;2023-05-23T12:47:45;0.10;;;0.10;;
19551;SDS011;9921;47.186;9.778;2023-05-23T12:50:12;0.13;;;0.13;;
19551;SDS011;9921;47.186;9.778;2023-05-23T12:52:39;0.10;;;0.10;;
19551;SDS011;9921;47.186;9.778;2023-05-23T12:55:07;0.10;;;0.10;;
19551;SDS011;9921;47.186;9.778;2023-05-23T12:57:34;0.10;;;0.10;;
19551;SDS011;9921;47.186;9.778;2023-05-23T13:00:03;0.10;;;0.10;;
19551;SDS011;9921;47.186;9.778;2023-05-23T13:02:32;0.10;;;0.10;;
19551;SDS011;9921;47.186;9.778;2023-05-23T13:04:59;0.10;;;0.10;;
19551;SDS011;9921;47.186;9.778;2023-05-23T13:07:25;0.10;;;0.10;;
19551;SDS011;9921;47.186;9.778;2023-05-23T13:09:53;0.10;;;0.10;;
19551;SDS011;9921;47.186;9.778;2023-05-23T13:12:20;0.17;;;0.17;;
19551;SDS011;9921;47.186;9.778;2023-05-23T13:14:47;0.20;;;0.20;;
19551;SDS011;9921;47.186;9.778;2023-05-23T13:17:15;0.10;;;0.10;;
19551;SDS011;9921;47.186;9.778;2023-05-23T13:19:42;0.10;;;0.10;;
19551;SDS011;9921;47.186;9.778;2023-05-23T13:22:09;0.10;;;0.10;;
19551;SDS011;9921;47.186;9.778;2023-05-23T13:24:36;0.20;;;0.20;;
19551;SDS011;9921;47.186;9.778;2023-05-23T13:27:03;0.10;;;0.10;;
19551;SDS011;9921;47.186;9.778;2023-05-23T13:29:31;0.10;;;0.10;;
19551;SDS011;9921;47.186;9.778;2023-05-23T13:31:58;0.10;;;0.10;;
19551;SDS011;9921;47.186;9.778;2023-05-23T13:34:26;0.10;;;0.10;;
19551;SDS011;9921;47.186;9.778;2023-05-23T13:36:53;0.10;;;0.10;;
19551;SDS011;9921;47.186;9.778;2023-05-23T13:39:20;0.10;;;0.10;;
19551;SDS011;9921;47.186;9.778;2023-05-23T13:41:47;0.10;;;0.10;;
19551;SDS011;9921;47.186;9.778;2023-05-23T13:44:14;0.20;;;0.20;;
19551;SDS011;9921;47.186;9.778;2023-05-23T13:46:41;0.10;;;0.10;;
19551;SDS011;9921;47.186;9.778;2023-05-23T13:49:08;0.10;;;0.10;;
19551;SDS011;9921;47.186;9.778;2023-05-23T13:51:36;0.10;;;0.10;;
19551;SDS011;9921;47.186;9.778;2023-05-23T13:54:04;0.13;;;0.13;;
19551;SDS011;9921;47.186;9.778;2023-05-23T13:56:31;0.10;;;0.10;;
19551;SDS011;9921;47.186;9.778;2023-05-23T13:58:58;0.10;;;0.10;;
19551;SDS011;9921;47.186;9.778;2023-05-23T14:01:26;0.10;;;0.10;;
19551;SDS011;9921;47.186;9.778;2023-05-23T14:03:53;0.10;;;0.10;;
19551;SDS011;9921;47.186;9.778;2023-05-23T14:06:20;0.10;;;0.10;;
19551;SDS011;9921;47.186;9.778;2023-05-23T14:08:48;0.10;;;0.10;;
19551;SDS011;9921;47.186;9.778;2023-05-23T14:11:15;0.10;;;0.10;;
19551;SDS011;9921;47.186;9.778;2023-05-23T14:13:42;0.10;;;0.10;;
19551;SDS011;9921;47.186;9.778;2023-05-23T14:16:09;0.10;;;0.10;;
19551;SDS011;9921;47.186;9.778;2023-05-23T14:18:36;0.10;;;0.10;;
19551;SDS011;9921;47.186;9.778;2023-05-23T14:21:02;0.10;;;0.10;;
19551;SDS011;9921;47.186;9.778;2023-05-23T14:23:30;0.10;;;0.10;;
19551;SDS011;9921;47.186;9.778;2023-05-23T14:25:58;0.10;;;0.10;;
19551;SDS011;9921;47.186;9.778;2023-05-23T14:28:25;0.10;;;0.10;;
19551;SDS011;9921;47.186;9.778;2023-05-23T14:30:52;0.10;;;0.10;;
19551;SDS011;9921;47.186;9.778;2023-05-23T14:33:19;0.10;;;0.10;;
19551;SDS011;9921;47.186;9.778;2023-05-23T14:35:46;0.10;;;0.10;;
19551;SDS011;9921;47.186;9.778;2023-05-23T14:38:14;0.10;;;0.10;;
19551;SDS011;9921;47.186;9.778;2023-05-23T14:40:41;0.03;;;0.03;;
19551;SDS011;9921;47.186;9.778;2023-05-23T14:43:09;0.00;;;0.00;;
19551;SDS011;9921;47.186;9.778;2023-05-23T14:45:36;0.00;;;0.00;;
19551;SDS011;9921;47.186;9.778;2023-05-23T14:48:03;0.00;;;0.00;;
19551;SDS011;9921;47.186;9.778;2023-05-23T14:50:30;0.00;;;0.00;;
19551;SDS011;9921;47.186;9.778;2023-05-23T14:52:57;0.00;;;0.00;;
19551;SDS011;9921;47.186;9.778;2023-05-23T14:55:24;0.00;;;0.00;;
19551;SDS011;9921;47.186;9.778;2023-05-23T14:57:51;0.10;;;0.10;;
19551;SDS011;9921;47.186;9.778;2023-05-23T15:00:20;0.00;;;0.00;;
19551;SDS011;9921;47.186;9.778;2023-05-23T15:02:47;0.00;;;0.00;;
19551;SDS011;9921;47.186;9.778;2023-05-23T15:05:14;0.00;;;0.00;;
19551;SDS011;9921;47.186;9.778;2023-05-23T15:07:41;0.00;;;0.00;;
19551;SDS011;9921;47.186;9.778;2023-05-23T15:10:08;0.00;;;0.00;;